| time (UTC) | temp F | wind direction | speed knots | gust knots | rain 1hr in | rain 24hr in | rain mn in | humidity % | barometer mb |
| 20260503211004 | 64 | 196 | 11.3 | 20.0 | 0.00 | 0.00 | 0.00 | 47 | 1011.1 |
| 20260503205503 | 64 | 178 | 8.7 | 17.4 | 0.00 | 0.00 | 0.00 | 46 | 1011.5 |
| 20260503204503 | 63 | 177 | 9.6 | 20.9 | 0.00 | 0.00 | 0.00 | 46 | 1011.9 |
| 20260503204003 | 62 | 200 | 8.7 | 15.6 | 0.00 | 0.00 | 0.00 | 47 | 1012.0 |
| 20260503203504 | 62 | 188 | 6.1 | 17.4 | 0.00 | 0.00 | 0.00 | 46 | 1012.1 |
| 20260503203004 | 62 | 183 | 7.8 | 22.6 | 0.00 | 0.00 | 0.00 | 46 | 1012.1 |
| 20260503201504 | 62 | 184 | 8.7 | 17.4 | 0.00 | 0.00 | 0.00 | 47 | 1011.8 |
| 20260503201003 | 62 | 182 | 7.0 | 20.0 | 0.00 | 0.00 | 0.00 | 49 | 1011.8 |
| 20260503200503 | 62 | 167 | 7.8 | 20.0 | 0.00 | 0.00 | 0.00 | 46 | 1012.4 |
| 20260503195504 | 62 | 169 | 8.7 | 20.0 | 0.00 | 0.00 | 0.00 | 46 | 1013.3 |
| 20260503194005 | 62 | 197 | 10.4 | 17.4 | 0.00 | 0.00 | 0.00 | 46 | 1013.8 |
| 20260503191505 | 62 | 198 | 8.7 | 17.4 | 0.00 | 0.00 | 0.00 | 46 | 1014.4 |
| 20260503191004 | 62 | 213 | 9.6 | 15.6 | 0.00 | 0.00 | 0.00 | 46 | 1014.3 |
| 20260503190004 | 63 | 188 | 11.3 | 20.9 | 0.00 | 0.00 | 0.00 | 43 | 1014.1 |
| 20260503185504 | 63 | 189 | 10.4 | 17.4 | 0.00 | 0.00 | 0.00 | 43 | 1014.3 |
| 20260503184504 | 63 | 184 | 10.4 | 20.0 | 0.00 | 0.00 | 0.00 | 45 | 1014.3 |
| 20260503181505 | 64 | 201 | 8.7 | 17.4 | 0.00 | 0.00 | 0.00 | 46 | 1015.2 |
| 20260503181004 | 63 | 192 | 7.8 | 17.4 | 0.00 | 0.00 | 0.00 | 47 | 1015.2 |
| 20260503180504 | 63 | 215 | 8.7 | 19.1 | 0.00 | 0.00 | 0.00 | 49 | 1015.2 |
| 20260503180004 | 63 | 199 | 11.3 | 19.1 | 0.00 | 0.00 | 0.00 | 47 | 1015.3 |
| 20260503175004 | 63 | 205 | 10.4 | 20.0 | 0.00 | 0.00 | 0.00 | 50 | 1015.6 |
| 20260503174504 | 62 | 176 | 12.2 | 20.0 | 0.00 | 0.00 | 0.00 | 48 | 1015.7 |
| 20260503174004 | 62 | 198 | 10.4 | 19.1 | 0.00 | 0.00 | 0.00 | 50 | 1016.0 |
| 20260503172504 | 62 | 198 | 10.4 | 19.1 | 0.00 | 0.00 | 0.00 | 48 | 1016.5 |
| 20260503130504 | 50 | 193 | 5.2 | 11.3 | 0.00 | 0.00 | 0.00 | 70 | 1018.7 |
| 20260503081004 | 37 | 342 | 0.0 | 0.0 | 0.00 | 0.00 | 0.00 | 89 | 1018.5 |
| 20260503072504 | 37 | 342 | 0.0 | 0.0 | 0.00 | 0.00 | 0.00 | 89 | 1018.4 |
| 20260503055004 | 39 | 342 | 0.0 | 0.0 | 0.00 | 0.00 | 0.00 | 89 | 1018.9 |
| 20260503054504 | 39 | 342 | 0.0 | 0.0 | 0.00 | 0.00 | 0.00 | 89 | 1018.9 |
| 20260503054004 | 39 | 342 | 0.0 | 0.0 | 0.00 | 0.00 | 0.00 | 88 | 1018.9 |
| 20260503053504 | 39 | 342 | 0.0 | 0.0 | 0.00 | 0.00 | 0.00 | 88 | 1018.9 |
| 20260503053004 | 39 | 342 | 0.0 | 0.0 | 0.00 | 0.00 | 0.00 | 88 | 1018.9 |
| 20260503052504 | 39 | 342 | 0.0 | 0.0 | 0.00 | 0.00 | 0.00 | 87 | 1018.9 |
| 20260503052004 | 39 | 342 | 0.0 | 0.0 | 0.00 | 0.00 | 0.00 | 87 | 1018.8 |
| 20260503051004 | 39 | 342 | 0.0 | 0.0 | 0.00 | 0.00 | 0.00 | 87 | 1018.9 |
| 20260503050005 | 39 | 342 | 0.0 | 0.0 | 0.00 | 0.00 | 0.00 | 85 | 1018.8 |
| 20260503044504 | 39 | 342 | 0.0 | 0.0 | 0.00 | 0.00 | 0.00 | 84 | 1018.8 |
| 20260503043004 | 40 | 342 | 0.0 | 0.0 | 0.00 | 0.00 | 0.00 | 84 | 1018.8 |
| 20260503042504 | 40 | 342 | 0.0 | 0.0 | 0.00 | 0.00 | 0.00 | 84 | 1018.8 |
| 20260503042004 | 40 | 342 | 0.0 | 0.0 | 0.00 | 0.00 | 0.00 | 84 | 1018.8 |
| 20260503041004 | 40 | 342 | 0.0 | 0.0 | 0.00 | 0.00 | 0.00 | 84 | 1018.8 |
| 20260503040504 | 40 | 342 | 0.0 | 0.0 | 0.00 | 0.00 | 0.00 | 84 | 1018.8 |
| 20260503040003 | 40 | 342 | 0.0 | 0.0 | 0.00 | 0.00 | 0.00 | 83 | 1018.9 |
| 20260503034504 | 40 | 342 | 0.0 | 0.0 | 0.00 | 0.00 | 0.00 | 80 | 1019.0 |
| 20260503033004 | 41 | 342 | 0.0 | 0.0 | 0.00 | 0.00 | 0.00 | 76 | 1018.9 |
| 20260503032004 | 41 | 342 | 0.0 | 0.0 | 0.00 | 0.00 | 0.00 | 74 | 1018.9 |
| 20260503030504 | 42 | 342 | 0.0 | 0.0 | 0.00 | 0.00 | 0.00 | 74 | 1018.8 |
| 20260503030004 | 42 | 342 | 0.0 | 0.0 | 0.00 | 0.00 | 0.00 | 72 | 1018.8 |
| 20260503025504 | 42 | 342 | 0.0 | 0.0 | 0.00 | 0.00 | 0.00 | 72 | 1018.8 |
| 20260503025004 | 42 | 342 | 0.0 | 0.0 | 0.00 | 0.00 | 0.00 | 71 | 1018.8 |
| 20260503024004 | 43 | 342 | 0.0 | 0.0 | 0.00 | 0.00 | 0.00 | 71 | 1018.8 |
| 20260503023004 | 43 | 342 | 0.0 | 0.0 | 0.00 | 0.00 | 0.00 | 71 | 1018.8 |
| 20260503022004 | 44 | 342 | 0.0 | 0.0 | 0.00 | 0.00 | 0.00 | 67 | 1018.7 |
| 20260503021504 | 44 | 342 | 0.0 | 0.0 | 0.00 | 0.00 | 0.00 | 68 | 1018.7 |
| 20260503021004 | 44 | 342 | 0.0 | 0.0 | 0.00 | 0.00 | 0.00 | 68 | 1018.7 |
| 20260503020003 | 45 | 342 | 0.0 | 0.0 | 0.00 | 0.00 | 0.00 | 65 | 1018.6 |
| 20260503014004 | 46 | 342 | 0.0 | 0.0 | 0.00 | 0.00 | 0.00 | 64 | 1018.4 |
| 20260503011504 | 48 | 343 | 0.0 | 0.0 | 0.00 | 0.00 | 0.00 | 51 | 1018.1 |
| 20260503010004 | 50 | 343 | 0.0 | 0.0 | 0.00 | 0.00 | 0.00 | 50 | 1018.1 |
| 20260503005503 | 50 | 343 | 0.0 | 0.0 | 0.00 | 0.00 | 0.00 | 46 | 1018.1 |
| 20260503004505 | 51 | 343 | 0.0 | 0.0 | 0.00 | 0.00 | 0.00 | 44 | 1018.0 |
| 20260503003003 | 52 | 343 | 0.0 | 2.6 | 0.00 | 0.00 | 0.00 | 44 | 1018.0 |
| 20260503002504 | 52 | 343 | 0.0 | 2.6 | 0.00 | 0.00 | 0.00 | 38 | 1018.0 |
| 20260503002004 | 52 | 343 | 0.0 | 2.6 | 0.00 | 0.00 | 0.00 | 40 | 1018.0 |
| 20260503000503 | 53 | 10 | 1.7 | 4.3 | 0.00 | 0.00 | 0.00 | 37 | 1017.9 |
| 20260503000004 | 53 | 5 | 1.7 | 6.1 | 0.00 | 0.00 | 0.00 | 35 | 1017.9 |
| 20260502235504 | 54 | 337 | 2.6 | 6.1 | 0.00 | 0.00 | 0.00 | 34 | 1017.9 |
| 20260502234504 | 54 | 333 | 0.9 | 5.2 | 0.00 | 0.00 | 0.00 | 36 | 1017.9 |
| 20260502234004 | 54 | 356 | 0.9 | 5.2 | 0.00 | 0.00 | 0.00 | 34 | 1017.9 |
| 20260502233004 | 54 | 251 | 1.7 | 10.4 | 0.00 | 0.00 | 0.00 | 34 | 1017.9 |
| 20260502232504 | 54 | 332 | 2.6 | 10.4 | 0.00 | 0.00 | 0.00 | 35 | 1017.9 |
| 20260502230504 | 55 | 295 | 2.6 | 7.0 | 0.00 | 0.00 | 0.00 | 34 | 1017.9 |
| 20260502230004 | 55 | 323 | 0.9 | 10.4 | 0.00 | 0.00 | 0.00 | 34 | 1017.9 |
| 20260502225003 | 55 | 347 | 4.3 | 10.4 | 0.00 | 0.00 | 0.00 | 35 | 1017.9 |
| 20260502224504 | 55 | 8 | 1.7 | 10.4 | 0.00 | 0.00 | 0.00 | 33 | 1017.8 |
| 20260502224004 | 55 | 338 | 3.5 | 10.4 | 0.00 | 0.00 | 0.00 | 33 | 1017.7 |
| 20260502223504 | 55 | 315 | 1.7 | 7.8 | 0.00 | 0.00 | 0.00 | 32 | 1017.7 |
| 20260502223004 | 55 | 23 | 2.6 | 7.8 | 0.00 | 0.00 | 0.00 | 32 | 1017.7 |
| 20260502220004 | 56 | 329 | 1.7 | 7.8 | 0.00 | 0.00 | 0.00 | 37 | 1017.7 |
| 20260502215004 | 56 | 322 | 1.7 | 12.2 | 0.00 | 0.00 | 0.00 | 36 | 1017.8 |
| 20260502213503 | 55 | 337 | 2.6 | 13.9 | 0.00 | 0.00 | 0.00 | 32 | 1017.8 |
| 20260502213003 | 56 | 346 | 2.6 | 13.9 | 0.00 | 0.00 | 0.00 | 31 | 1017.8 |
| 20260502212004 | 56 | 359 | 0.9 | 7.8 | 0.00 | 0.00 | 0.00 | 32 | 1017.8 |